createdAt,value
2023-01-19T00:02:47.295Z,4.47
2023-01-19T00:05:51.372Z,5.18
2023-01-19T00:08:53.995Z,4.97
2023-01-19T00:11:56.583Z,11.57
2023-01-19T00:14:59.140Z,5.72
2023-01-19T00:18:01.661Z,4.57
2023-01-19T00:21:05.713Z,8.55
2023-01-19T00:24:08.429Z,8.95
2023-01-19T00:27:10.962Z,7.53
2023-01-19T00:30:14.068Z,6.18
2023-01-19T00:33:16.659Z,6.93
2023-01-19T00:36:20.777Z,8.15
2023-01-19T00:39:23.310Z,6.45
2023-01-19T00:42:41.197Z,12.65
2023-01-19T00:45:43.791Z,12.65
2023-01-19T00:48:46.407Z,19.45
2023-01-19T00:51:50.300Z,14.82
2023-01-19T00:54:52.830Z,8.85
2023-01-19T00:57:55.388Z,14.43
2023-01-19T01:01:03.466Z,10.57
2023-01-19T01:04:06.629Z,10.30
2023-01-19T01:07:10.684Z,8.75
2023-01-19T01:10:14.213Z,3.85
2023-01-19T01:13:20.180Z,7.15
2023-01-19T01:16:24.972Z,12.18
2023-01-19T01:19:27.608Z,8.25
2023-01-19T01:22:31.698Z,5.40
2023-01-19T01:25:37.596Z,7.65
2023-01-19T01:28:40.143Z,7.47
2023-01-19T01:31:42.774Z,8.95
2023-01-19T01:34:45.372Z,11.85
2023-01-19T01:37:49.287Z,4.95
2023-01-19T01:40:51.828Z,12.20
2023-01-19T01:43:58.106Z,8.05
2023-01-19T01:47:00.768Z,7.57
2023-01-19T01:50:09.986Z,13.57
2023-01-19T01:53:14.528Z,9.80
2023-01-19T01:56:23.101Z,12.27
2023-01-19T01:59:29.707Z,9.18
2023-01-19T02:02:49.722Z,12.80
2023-01-19T02:05:52.259Z,17.85
2023-01-19T02:09:16.174Z,12.60
2023-01-19T02:12:36.358Z,9.38
2023-01-19T02:15:38.913Z,6.22
2023-01-19T02:18:41.647Z,5.65
2023-01-19T02:21:53.097Z,5.43
2023-01-19T02:24:56.967Z,4.00
2023-01-19T02:27:59.495Z,4.80
2023-01-19T02:31:02.128Z,3.55
2023-01-19T02:34:04.996Z,3.92
2023-01-19T02:37:08.660Z,3.40
2023-01-19T02:40:13.937Z,3.42
2023-01-19T02:43:16.536Z,4.15
2023-01-19T02:46:19.101Z,6.53
2023-01-19T02:49:21.648Z,5.93
2023-01-19T02:52:24.176Z,7.88
2023-01-19T02:55:28.832Z,11.27
2023-01-19T02:58:33.529Z,5.05
2023-01-19T03:01:41.950Z,8.00
2023-01-19T03:04:54.803Z,7.50
2023-01-19T03:08:00.106Z,7.35
2023-01-19T03:11:04.897Z,7.32
2023-01-19T03:14:09.869Z,11.88
2023-01-19T03:17:12.393Z,11.77
2023-01-19T03:20:15.020Z,19.02
2023-01-19T03:23:17.542Z,9.30
2023-01-19T03:26:24.667Z,10.65
2023-01-19T03:29:29.313Z,11.88
2023-01-19T03:32:35.456Z,10.32
2023-01-19T03:35:39.910Z,13.55
2023-01-19T03:38:42.657Z,8.27
2023-01-19T03:41:46.581Z,10.07
2023-01-19T03:44:50.606Z,9.93
2023-01-19T03:47:53.240Z,17.38
2023-01-19T03:50:56.038Z,15.68
2023-01-19T03:53:58.617Z,19.30
2023-01-19T03:57:02.536Z,20.67
2023-01-19T04:00:06.457Z,18.45
2023-01-19T04:03:13.856Z,16.70
2023-01-19T04:06:16.452Z,20.08
2023-01-19T04:09:20.136Z,17.65
2023-01-19T04:12:24.091Z,17.17
2023-01-19T04:15:26.737Z,21.90
2023-01-19T04:18:29.301Z,17.02
2023-01-19T04:21:31.822Z,19.25
2023-01-19T04:24:34.361Z,27.67
2023-01-19T04:27:38.332Z,24.95
2023-01-19T04:30:40.916Z,21.98
2023-01-19T04:33:43.496Z,21.50
2023-01-19T04:36:46.871Z,24.00
2023-01-19T04:39:49.450Z,23.50
2023-01-19T04:42:54.305Z,15.32
2023-01-19T04:45:56.876Z,16.52
2023-01-19T04:48:59.873Z,25.23
2023-01-19T04:52:02.486Z,19.40
2023-01-19T04:55:05.505Z,19.23
2023-01-19T04:58:09.375Z,25.65
2023-01-19T05:01:12.006Z,24.30
2023-01-19T05:04:14.577Z,18.58
2023-01-19T05:07:17.188Z,23.73
2023-01-19T05:10:20.204Z,26.13
2023-01-19T05:13:24.097Z,18.45
2023-01-19T05:16:26.689Z,16.92
2023-01-19T05:19:29.300Z,19.15
2023-01-19T05:22:31.989Z,20.05
2023-01-19T05:25:34.522Z,20.90
2023-01-19T05:28:38.772Z,16.35
2023-01-19T05:31:41.326Z,17.17
2023-01-19T05:34:43.896Z,13.73
2023-01-19T05:37:46.477Z,22.85
2023-01-19T05:40:49.502Z,19.95
2023-01-19T05:43:53.479Z,24.85
2023-01-19T05:46:56.160Z,21.85
2023-01-19T05:49:58.738Z,21.52
2023-01-19T05:53:01.680Z,15.90
2023-01-19T05:56:06.049Z,20.80
2023-01-19T05:59:10.359Z,24.83
2023-01-19T06:02:13.020Z,27.40
2023-01-19T06:05:15.652Z,21.92
2023-01-19T06:08:18.576Z,23.63
2023-01-19T06:11:21.901Z,18.17
2023-01-19T06:14:26.101Z,23.20
2023-01-19T06:17:28.683Z,18.23
2023-01-19T06:20:32.323Z,12.02
2023-01-19T06:23:35.223Z,23.10
2023-01-19T06:26:37.780Z,15.55
2023-01-19T06:29:41.659Z,19.17
2023-01-19T06:32:44.235Z,27.08
2023-01-19T06:35:47.088Z,16.67
2023-01-19T06:38:49.603Z,13.18
2023-01-19T06:41:52.136Z,19.50
2023-01-19T06:44:56.063Z,17.35
2023-01-19T06:47:58.609Z,18.50
2023-01-19T06:51:01.140Z,19.10
2023-01-19T06:54:03.891Z,18.58
2023-01-19T06:57:06.418Z,21.45
2023-01-19T07:00:11.763Z,20.48
2023-01-19T07:03:19.497Z,14.02
2023-01-19T07:06:22.225Z,16.30
2023-01-19T07:09:25.474Z,20.08
2023-01-19T07:12:28.104Z,21.35
2023-01-19T07:15:31.982Z,16.27
2023-01-19T07:18:34.611Z,19.23
2023-01-19T07:21:37.231Z,13.07
2023-01-19T07:24:39.805Z,10.18
2023-01-19T07:27:42.348Z,14.45
2023-01-19T07:30:47.038Z,12.45
2023-01-19T07:33:49.967Z,9.85
2023-01-19T07:36:52.500Z,21.45
2023-01-19T07:39:55.087Z,13.77
2023-01-19T07:42:57.695Z,14.05
2023-01-19T07:46:02.859Z,11.70
2023-01-19T07:49:05.512Z,22.17
2023-01-19T07:52:08.063Z,15.68
2023-01-19T07:55:10.953Z,13.35
2023-01-19T07:58:13.579Z,18.20
2023-01-19T08:01:17.993Z,15.63
2023-01-19T08:04:20.748Z,19.25
2023-01-19T08:07:23.410Z,16.58
2023-01-19T08:10:26.829Z,12.07
2023-01-19T08:13:29.413Z,10.48
2023-01-19T08:16:33.351Z,11.90
2023-01-19T08:19:36.011Z,10.70
2023-01-19T08:22:38.758Z,10.10
2023-01-19T08:25:44.317Z,13.45
2023-01-19T08:28:46.923Z,13.30
2023-01-19T08:31:50.918Z,10.13
2023-01-19T08:34:53.600Z,12.45
2023-01-19T08:37:56.736Z,11.35
2023-01-19T08:40:59.270Z,9.40
2023-01-19T08:44:01.825Z,12.13
2023-01-19T08:47:05.884Z,14.02
2023-01-19T08:50:10.671Z,12.65
2023-01-19T08:53:13.235Z,13.45
2023-01-19T08:56:15.833Z,16.90
2023-01-19T08:59:18.556Z,8.48
2023-01-19T09:02:22.547Z,11.68
2023-01-19T09:05:25.167Z,7.70
2023-01-19T09:08:28.078Z,10.30
2023-01-19T09:11:30.715Z,12.60
2023-01-19T09:14:33.524Z,13.50
2023-01-19T09:17:37.478Z,12.18
2023-01-19T09:20:42.379Z,7.07
2023-01-19T09:23:45.194Z,12.57
2023-01-19T09:26:47.932Z,7.57
2023-01-19T09:29:52.596Z,9.13
2023-01-19T09:32:58.630Z,5.43
2023-01-19T09:36:02.838Z,14.05
2023-01-19T09:39:05.415Z,5.18
2023-01-19T09:42:12.964Z,6.10
2023-01-19T09:48:29.068Z,4.28
2023-01-19T09:51:34.561Z,8.77
2023-01-19T09:54:41.022Z,4.95
2023-01-19T09:57:45.127Z,9.88
2023-01-19T10:00:50.604Z,6.60
2023-01-19T10:04:03.761Z,9.55
2023-01-19T10:07:17.110Z,7.63
2023-01-19T10:10:21.611Z,2.80
2023-01-19T10:13:29.390Z,5.07
2023-01-19T10:16:39.678Z,12.75
2023-01-19T10:19:46.737Z,3.60
2023-01-19T10:22:50.277Z,2.22
2023-01-19T10:25:52.919Z,1.88
2023-01-19T10:28:57.887Z,3.38
2023-01-19T10:32:05.214Z,9.90
2023-01-19T10:35:15.151Z,5.07
2023-01-19T10:38:21.940Z,7.05
2023-01-19T10:41:27.261Z,9.52
2023-01-19T10:44:30.801Z,7.45
2023-01-19T10:47:35.490Z,11.10
2023-01-19T10:50:40.618Z,7.53
2023-01-19T10:53:43.996Z,5.10
2023-01-19T10:56:46.636Z,8.35
2023-01-19T10:59:50.778Z,3.88
2023-01-19T11:02:53.541Z,6.28
2023-01-19T11:05:59.734Z,3.38
2023-01-19T11:09:15.606Z,7.50
2023-01-19T11:12:19.742Z,4.45
2023-01-19T11:15:23.025Z,4.82
2023-01-19T11:18:28.148Z,4.18
2023-01-19T11:21:32.897Z,6.88
2023-01-19T11:24:36.746Z,8.45
2023-01-19T11:27:39.520Z,4.05
2023-01-19T11:30:55.057Z,7.50
2023-01-19T11:33:58.673Z,10.75
2023-01-19T11:37:03.621Z,7.45
2023-01-19T11:40:07.056Z,3.03
2023-01-19T11:43:11.381Z,4.32
2023-01-19T11:46:14.048Z,6.63
2023-01-19T11:49:19.999Z,4.55
2023-01-19T11:52:27.036Z,7.38
2023-01-19T11:55:34.008Z,5.82
2023-01-19T11:58:38.977Z,7.97
2023-01-19T12:01:43.448Z,8.23
2023-01-19T12:04:46.685Z,2.55
2023-01-19T12:07:50.679Z,5.60
2023-01-19T12:10:53.904Z,5.85
2023-01-19T12:13:56.452Z,6.75
2023-01-19T12:17:00.200Z,8.80
2023-01-19T12:20:07.033Z,6.50
2023-01-19T12:23:19.057Z,2.33
2023-01-19T12:26:29.893Z,2.65
2023-01-19T12:29:33.720Z,2.97
2023-01-19T12:32:36.766Z,3.50
2023-01-19T12:35:55.452Z,5.15
2023-01-19T12:39:01.878Z,2.42
2023-01-19T12:42:12.494Z,2.65
2023-01-19T12:45:15.568Z,4.03
2023-01-19T12:48:24.983Z,7.82
2023-01-19T12:51:27.612Z,9.25
2023-01-19T12:54:32.547Z,12.15
2023-01-19T12:57:36.827Z,4.80
2023-01-19T13:00:39.897Z,6.32
2023-01-19T13:03:47.517Z,2.53
2023-01-19T13:10:50.624Z,4.40
2023-01-19T13:14:34.913Z,5.45
2023-01-19T13:17:40.184Z,8.30
2023-01-19T13:20:45.327Z,4.72
2023-01-19T13:23:53.339Z,7.75
2023-01-19T13:26:57.734Z,3.42
2023-01-19T13:30:01.547Z,8.95
2023-01-19T13:33:10.323Z,5.75
2023-01-19T13:36:22.637Z,2.88
2023-01-19T13:39:27.631Z,5.97
2023-01-19T13:42:31.374Z,3.30
2023-01-19T13:45:34.596Z,3.55
2023-01-19T13:48:38.494Z,2.55
2023-01-19T13:51:41.085Z,6.15
2023-01-19T13:54:50.290Z,7.85
2023-01-19T13:57:53.064Z,3.35
2023-01-19T14:00:55.760Z,2.67
2023-01-19T14:03:59.946Z,2.85
2023-01-19T14:07:04.296Z,3.15
2023-01-19T14:10:08.275Z,3.47
2023-01-19T14:13:15.342Z,3.25
2023-01-19T14:16:18.340Z,6.90
2023-01-19T14:19:22.350Z,3.60
2023-01-19T14:22:39.003Z,7.45
2023-01-19T14:25:45.086Z,5.85
2023-01-19T14:28:47.736Z,3.00
2023-01-19T14:31:51.489Z,5.65
2023-01-19T14:35:13.392Z,4.00
2023-01-19T14:38:16.022Z,2.20
2023-01-19T14:41:24.027Z,8.00
2023-01-19T14:44:29.301Z,2.72
2023-01-19T14:47:37.049Z,5.95
2023-01-19T14:50:51.013Z,3.90
2023-01-19T14:54:04.799Z,4.95
2023-01-19T14:57:11.715Z,5.50
2023-01-19T15:00:17.656Z,7.22
2023-01-19T15:03:20.256Z,3.92
2023-01-19T15:06:24.440Z,3.90
2023-01-19T15:09:27.103Z,5.55
2023-01-19T15:12:29.635Z,7.78
2023-01-19T15:15:33.135Z,3.88
2023-01-19T15:18:35.707Z,8.20
2023-01-19T15:21:41.940Z,10.10
2023-01-19T15:24:44.557Z,7.10
2023-01-19T15:27:47.300Z,5.75
2023-01-19T15:30:49.832Z,8.25
2023-01-19T15:33:52.372Z,3.22
2023-01-19T15:36:56.306Z,4.18
2023-01-19T15:39:58.904Z,5.45
2023-01-19T15:43:01.485Z,6.47
2023-01-19T15:46:06.266Z,12.40
2023-01-19T15:49:08.910Z,5.10
2023-01-19T15:52:12.867Z,8.63
2023-01-19T15:55:15.928Z,7.20
2023-01-19T15:58:20.495Z,12.50
2023-01-19T16:01:24.093Z,6.80
2023-01-19T16:04:26.708Z,8.48
2023-01-19T16:07:30.619Z,8.52
2023-01-19T16:10:33.258Z,5.95
2023-01-19T16:13:35.856Z,6.70
2023-01-19T16:16:38.629Z,6.70
2023-01-19T16:19:41.253Z,7.40
2023-01-19T16:22:45.142Z,5.47
2023-01-19T16:25:56.186Z,6.82
2023-01-19T16:28:59.859Z,5.72
2023-01-19T16:32:02.465Z,6.50
2023-01-19T16:35:05.459Z,5.97
2023-01-19T16:38:10.153Z,10.30
2023-01-19T16:41:12.707Z,4.03
2023-01-19T16:44:16.283Z,8.38
2023-01-19T16:47:18.836Z,2.13
2023-01-19T16:50:21.355Z,3.70
2023-01-19T16:53:25.285Z,3.03
2023-01-19T16:56:27.832Z,4.10
2023-01-19T16:59:30.444Z,3.10
2023-01-19T17:02:33.306Z,4.55
2023-01-19T17:05:35.851Z,5.00
2023-01-19T17:08:39.809Z,2.20
2023-01-19T17:11:42.507Z,2.20
2023-01-19T17:14:47.170Z,3.42
2023-01-19T17:17:49.699Z,1.15
2023-01-19T17:20:52.283Z,2.72
2023-01-19T17:23:56.571Z,1.88
2023-01-19T17:26:59.183Z,1.52
2023-01-19T17:30:01.794Z,2.75
2023-01-19T17:33:04.336Z,5.22
2023-01-19T17:36:08.033Z,1.48
2023-01-19T17:39:14.723Z,3.05
2023-01-19T17:42:17.467Z,3.92
2023-01-19T17:45:20.051Z,5.38
2023-01-19T17:48:22.619Z,3.03
2023-01-19T17:51:25.587Z,6.13
2023-01-19T17:54:29.725Z,4.55
2023-01-19T17:57:32.276Z,3.88
2023-01-19T18:00:34.832Z,8.50
2023-01-19T18:03:37.391Z,8.07
2023-01-19T18:06:40.095Z,3.03
2023-01-19T18:09:44.068Z,13.73
2023-01-19T18:12:46.594Z,11.13
2023-01-19T18:15:49.141Z,6.45
2023-01-19T18:18:53.413Z,4.70
2023-01-19T18:21:56.618Z,3.58
2023-01-19T18:25:01.619Z,4.47
2023-01-19T18:28:05.379Z,4.13
2023-01-19T18:31:08.175Z,5.18
2023-01-19T18:34:10.793Z,2.10
2023-01-19T18:37:13.335Z,5.00
2023-01-19T18:40:17.633Z,6.22
2023-01-19T18:43:20.203Z,3.17
2023-01-19T18:46:22.792Z,6.20
2023-01-19T18:49:25.387Z,5.78
2023-01-19T18:52:27.927Z,3.17
2023-01-19T18:55:31.794Z,14.10
2023-01-19T18:58:34.462Z,10.98
2023-01-19T19:01:37.127Z,5.95
2023-01-19T19:04:40.031Z,6.47
2023-01-19T19:07:42.801Z,7.78
2023-01-19T19:10:46.678Z,5.70
2023-01-19T19:13:52.588Z,7.70
2023-01-19T19:16:55.239Z,3.17
2023-01-19T19:19:57.805Z,3.95
2023-01-19T19:23:00.380Z,9.60
2023-01-19T19:26:04.780Z,4.93
2023-01-19T19:29:07.371Z,6.70
2023-01-19T19:32:09.947Z,3.85
2023-01-19T19:35:12.581Z,4.68
2023-01-19T19:38:15.118Z,5.55
2023-01-19T19:41:20.164Z,3.67
2023-01-19T19:44:22.744Z,4.10
2023-01-19T19:47:25.450Z,4.95
2023-01-19T19:50:28.021Z,8.70
2023-01-19T19:53:30.559Z,5.70
2023-01-19T19:56:34.776Z,8.52
2023-01-19T19:59:37.486Z,5.50
2023-01-19T20:02:40.031Z,9.13
2023-01-19T20:05:42.614Z,6.13
2023-01-19T20:08:45.181Z,4.57
2023-01-19T20:11:49.094Z,5.65
2023-01-19T20:14:51.647Z,8.50
2023-01-19T20:17:56.041Z,10.95
2023-01-19T20:20:58.730Z,12.15
2023-01-19T20:24:01.969Z,11.20
2023-01-19T20:27:05.944Z,9.80
2023-01-19T20:30:09.683Z,9.48
2023-01-19T20:33:12.220Z,10.27
2023-01-19T20:36:14.873Z,11.07
2023-01-19T20:39:17.562Z,12.93
2023-01-19T20:42:21.471Z,10.10
2023-01-19T20:45:25.938Z,10.65
2023-01-19T20:48:28.511Z,6.40
2023-01-19T20:51:31.064Z,8.68
2023-01-19T20:54:33.648Z,7.22
2023-01-19T20:57:37.568Z,8.23
2023-01-19T21:00:40.912Z,7.05
2023-01-19T21:03:43.516Z,9.40
2023-01-19T21:06:46.119Z,11.20
2023-01-19T21:09:48.733Z,10.13
2023-01-19T21:12:52.661Z,12.18
2023-01-19T21:15:55.222Z,11.85
2023-01-19T21:18:57.740Z,17.50
2023-01-19T21:22:00.310Z,12.50
2023-01-19T21:25:02.905Z,14.93
2023-01-19T21:28:07.048Z,9.73
2023-01-19T21:31:10.575Z,10.18
2023-01-19T21:34:14.020Z,10.80
2023-01-19T21:37:16.587Z,8.65
2023-01-19T21:40:19.932Z,9.40
2023-01-19T21:43:23.934Z,6.90
2023-01-19T21:46:28.863Z,9.65
2023-01-19T21:49:31.876Z,9.95
2023-01-19T21:52:34.448Z,10.07
2023-01-19T21:55:37.064Z,9.25
2023-01-19T21:58:40.988Z,10.98
2023-01-19T22:01:43.836Z,10.55
2023-01-19T22:04:46.479Z,12.07
2023-01-19T22:07:49.408Z,9.60
2023-01-19T22:10:51.996Z,8.15
2023-01-19T22:13:55.871Z,8.70
2023-01-19T22:16:58.455Z,13.93
2023-01-19T22:20:01.145Z,6.95
2023-01-19T22:23:03.679Z,9.50
2023-01-19T22:26:06.264Z,8.35
2023-01-19T22:29:11.786Z,6.57
2023-01-19T22:32:14.351Z,7.85
2023-01-19T22:35:17.188Z,7.93
2023-01-19T22:38:19.723Z,8.77
2023-01-19T22:41:22.929Z,7.22
2023-01-19T22:44:27.128Z,8.40
2023-01-19T22:47:29.750Z,9.75
2023-01-19T22:50:32.274Z,8.98
2023-01-19T22:53:34.846Z,8.50
2023-01-19T22:56:37.965Z,6.55
2023-01-19T22:59:43.537Z,13.38
2023-01-19T23:02:46.145Z,8.82
2023-01-19T23:05:48.771Z,12.50
2023-01-19T23:08:51.413Z,12.52
2023-01-19T23:11:54.053Z,12.18
2023-01-19T23:14:57.981Z,11.00
2023-01-19T23:18:00.577Z,12.20
2023-01-19T23:21:03.821Z,15.77
2023-01-19T23:24:06.776Z,17.48
2023-01-19T23:27:09.551Z,20.42
2023-01-19T23:30:14.379Z,19.90
2023-01-19T23:33:16.940Z,24.42
2023-01-19T23:36:19.777Z,27.33
2023-01-19T23:39:22.727Z,34.35
2023-01-19T23:42:25.261Z,33.30
2023-01-19T23:45:29.136Z,35.70
2023-01-19T23:48:31.667Z,37.22
2023-01-19T23:51:34.459Z,36.53
2023-01-19T23:54:37.195Z,35.10
2023-01-19T23:57:39.828Z,42.83
